Terminal Aerodrome Forecast
Issued by NWS

Home | Current Version | Previous Version | Graphics & Text | Print | Product List | Glossary On
Versions: 1 2 3 4 5 6 7 8 9 10 11 12 13 14 15 16 17 18 19 20
000
FTUS43 KLSX 192300
TAFSUS
TAF
KSUS 192338Z 2000/2024 VRB03KT P6SM SKC
     FM200600 00000KT 3SM BR SKC
     FM201100 00000KT P6SM VCSH BKN060
     FM201300 VRB03KT P6SM BKN060
     FM201600 22007KT P6SM SCT045=

USA.gov is the U.S. government's official web portal to all federal, state and local government web resources and services.